Terminal Aerodrome Forecast
Issued by NWS

Home | Current Version | Previous Version | Graphics & Text | Print | Product List | Glossary On
Versions: 1 2 3 4 5 6 7 8 9 10 11 12 13 14 15
000
FTUS43 KGRB 231736
TAFAUW
TAF
KAUW 231736Z 2318/2418 05007G14KT P6SM VCSH OVC040
     FM231900 05008KT P6SM VCSH OVC022
     FM241000 04007KT P6SM OVC009
     FM241600 06009G16KT P6SM OVC015
     FM241700 06009G16KT P6SM OVC020=

USA.gov is the U.S. government's official web portal to all federal, state and local government web resources and services.